Time;durP1;ratioP1;P1;durP2;ratioP2;P2;SDS_P1;SDS_P2;PMS_P1;PMS_P2;Temp;Humidity;BMP_temperature;BMP_pressure;BME280_temperature;BME280_humidity;BME280_pressure;Samples;Min_cycle;Max_cycle;Signal;HPM_P1;HPM_P2
2022/01/16 00:01:44;;;;;;;17.23;8.57;;;4.50;1.00;;;;;;5069648;28;20423;-75
2022/01/16 00:04:10;;;;;;;16.25;9.38;;;4.40;1.00;;;;;;5057489;28;20199;-75
2022/01/16 00:06:38;;;;;;;14.77;8.00;;;4.40;1.00;;;;;;5054918;28;20380;-75
2022/01/16 00:09:05;;;;;;;19.00;9.83;;;4.30;1.00;;;;;;5067469;28;20651;-75
2022/01/16 00:11:32;;;;;;;17.80;9.80;;;4.20;1.00;;;;;;5066753;28;20425;-75
2022/01/16 00:13:58;;;;;;;20.45;9.57;;;4.10;1.00;;;;;;5056787;28;20541;-75
2022/01/16 00:16:29;;;;;;;20.77;9.60;;;4.20;1.00;;;;;;5055798;28;20269;-76
2022/01/16 00:18:55;;;;;;;16.03;8.93;;;4.20;1.00;;;;;;5060210;28;20179;-76
2022/01/16 00:21:39;;;;;;;15.80;8.60;;;4.20;1.00;;;;;;5059647;28;20434;-75
2022/01/16 00:24:05;;;;;;;19.80;9.20;;;4.10;1.00;;;;;;5043425;28;20453;-75
2022/01/16 00:26:35;;;;;;;26.23;9.50;;;4.10;1.00;;;;;;5066562;28;20815;-75
2022/01/16 00:29:01;;;;;;;15.70;8.90;;;4.10;1.00;;;;;;5055330;28;20748;-75
2022/01/16 00:31:27;;;;;;;17.57;9.83;;;4.10;1.00;;;;;;5054286;28;20390;-75
2022/01/16 00:33:53;;;;;;;14.63;8.87;;;;;;;;;;5054685;28;20905;-75
2022/01/16 00:36:22;;;;;;;18.10;9.30;;;4.20;1.00;;;;;;5074862;28;20163;-77
2022/01/16 00:38:49;;;;;;;21.47;9.67;;;4.20;1.00;;;;;;5058026;28;20940;-77
2022/01/16 00:41:18;;;;;;;18.17;8.90;;;4.30;1.00;;;;;;5054213;28;20905;-76
2022/01/16 00:43:53;;;;;;;19.40;9.97;;;4.30;1.00;;;;;;5064647;28;20449;-76
2022/01/16 00:46:23;;;;;;;14.33;8.10;;;4.20;1.00;;;;;;5073762;28;20389;-76
2022/01/16 00:48:49;;;;;;;26.27;8.35;;;4.20;1.00;;;;;;5069778;28;20417;-78
2022/01/16 00:51:34;;;;;;;20.63;8.57;;;4.20;1.00;;;;;;5055956;28;20237;-75
2022/01/16 00:54:00;;;;;;;14.93;8.77;;;4.20;1.00;;;;;;5054249;28;20406;-75
2022/01/16 00:56:25;;;;;;;19.27;9.10;;;4.30;1.00;;;;;;5053607;28;21003;-75
2022/01/16 00:58:52;;;;;;;21.20;9.63;;;4.30;1.00;;;;;;5067775;28;20687;-75
2022/01/16 01:01:40;;;;;;;18.52;9.65;;;4.20;1.00;;;;;;5053433;28;20210;-75
2022/01/16 01:04:10;;;;;;;15.20;8.33;;;4.20;1.00;;;;;;5054156;28;20249;-75
2022/01/16 01:06:40;;;;;;;15.73;7.55;;;4.20;1.00;;;;;;5054331;28;20398;-75
2022/01/16 01:09:06;;;;;;;12.70;7.22;;;4.20;1.00;;;;;;5054069;28;20180;-75
2022/01/16 01:11:37;;;;;;;19.73;7.90;;;4.20;1.00;;;;;;5065373;28;20194;-75
2022/01/16 01:16:55;;;;;;;15.40;7.47;;;4.10;1.00;;;;;;5066659;28;20527;-75
2022/01/16 01:19:32;;;;;;;12.32;6.93;;;4.10;1.00;;;;;;5049952;28;20172;-75
2022/01/16 01:21:59;;;;;;;18.25;7.95;;;4.10;1.00;;;;;;5047853;28;20172;-77
2022/01/16 01:24:35;;;;;;;15.70;8.23;;;4.10;1.00;;;;;;5049557;28;20195;-76
2022/01/16 01:27:29;;;;;;;15.73;7.50;;;4.10;1.00;;;;;;5052686;28;20611;-76
2022/01/16 01:30:07;;;;;;;12.93;6.45;;;4.10;1.00;;;;;;5060756;28;20926;-76
2022/01/16 01:32:40;;;;;;;19.60;5.53;;;4.10;1.00;;;;;;5072563;28;20175;-76
2022/01/16 01:35:28;;;;;;;14.60;6.07;;;4.00;1.00;;;;;;5056965;28;20426;-75
2022/01/16 01:37:58;;;;;;;12.77;6.15;;;3.90;1.00;;;;;;5067058;28;20406;-76
2022/01/16 01:40:28;;;;;;;12.80;5.70;;;3.90;1.00;;;;;;5067237;28;20206;-77
2022/01/16 01:51:42;;;;;;;8.00;4.20;;;3.70;1.00;;;;;;5051677;28;20186;-76
2022/01/16 01:54:08;;;;;;;7.75;4.93;;;3.60;1.00;;;;;;5035576;28;20223;-76
2022/01/16 01:56:35;;;;;;;7.60;4.85;;;3.70;1.00;;;;;;5035211;28;20669;-76
2022/01/16 01:59:05;;;;;;;11.38;6.18;;;3.70;1.00;;;;;;5035310;28;20642;-76
2022/01/16 02:01:31;;;;;;;10.88;5.78;;;6.50;1.00;;;;;;5035157;28;20596;-76
2022/01/16 02:03:59;;;;;;;11.30;5.68;;;3.60;1.00;;;;;;5035340;28;20229;-76
2022/01/16 02:06:31;;;;;;;14.15;6.63;;;3.60;1.00;;;;;;5035360;28;20180;-75
2022/01/16 02:09:03;;;;;;;14.38;6.82;;;3.50;1.00;;;;;;5042497;28;20167;-75
2022/01/16 02:11:31;;;;;;;23.80;5.45;;;3.60;1.00;;;;;;5039275;28;20168;-75
2022/01/16 02:14:10;;;;;;;14.40;6.72;;;3.40;1.00;;;;;;5035310;28;20165;-75
2022/01/16 02:36:05;;;;;;;16.42;7.88;;;3.40;1.00;;;;;;5059440;28;20205;-75
2022/01/16 02:38:40;;;;;;;16.63;8.38;;;3.40;1.00;;;;;;5057919;28;20258;-75
2022/01/16 02:41:06;;;;;;;19.90;8.20;;;3.40;1.00;;;;;;5036717;28;20184;-75
2022/01/16 02:43:36;;;;;;;20.37;9.97;;;3.50;1.00;;;;;;5062207;28;20688;-75
2022/01/16 02:48:48;;;;;;;23.67;9.95;;;3.50;1.00;;;;;;5065970;28;20780;-75
2022/01/16 02:51:21;;;;;;;27.15;11.50;;;3.60;1.00;;;;;;5056423;28;20183;-76
2022/01/16 02:53:48;;;;;;;21.77;10.27;;;3.60;1.00;;;;;;5069651;28;20190;-76
2022/01/16 02:56:17;;;;;;;17.80;9.50;;;3.60;1.00;;;;;;5066939;28;20190;-76
2022/01/16 02:58:44;;;;;;;26.85;10.70;;;3.60;1.00;;;;;;5058490;28;20191;-76
2022/01/16 03:01:11;;;;;;;19.52;9.57;;;3.60;1.00;;;;;;5060390;28;20179;-77
2022/01/16 03:03:52;;;;;;;28.13;9.57;;;3.50;1.00;;;;;;5069821;28;20204;-77
2022/01/16 03:06:27;;;;;;;34.05;10.50;;;3.60;1.00;;;;;;5057859;28;20167;-76
2022/01/16 03:08:52;;;;;;;33.10;10.30;;;3.60;1.00;;;;;;5043356;28;20167;-75
2022/01/16 03:11:27;;;;;;;24.80;10.10;;;3.60;1.00;;;;;;5054593;28;20187;-75
2022/01/16 03:13:58;;;;;;;22.73;10.52;;;3.70;1.00;;;;;;5066290;28;20229;-75
2022/01/16 03:16:44;;;;;;;25.25;10.23;;;3.70;1.00;;;;;;5058761;28;20694;-75
2022/01/16 03:22:02;;;;;;;30.92;10.90;;;3.60;1.00;;;;;;5056133;28;20238;-76
2022/01/16 03:24:36;;;;;;;26.92;10.27;;;3.60;1.00;;;;;;5058609;28;20187;-76
2022/01/16 03:27:18;;;;;;;23.95;9.73;;;3.60;1.00;;;;;;5055834;28;20176;-77
2022/01/16 03:29:49;;;;;;;21.13;9.40;;;3.60;1.00;;;;;;5055515;28;20217;-76
2022/01/16 03:32:18;;;;;;;33.80;10.82;;;3.50;1.00;;;;;;5055711;28;20199;-78
2022/01/16 03:34:47;;;;;;;23.20;10.43;;;3.60;1.00;;;;;;5068735;28;20179;-77
2022/01/16 03:37:13;;;;;;;24.52;10.20;;;3.50;1.00;;;;;;5062311;28;20184;-76
2022/01/16 03:39:40;;;;;;;27.48;10.73;;;3.50;1.00;;;;;;5043336;28;20575;-76
2022/01/16 03:42:07;;;;;;;32.90;10.20;;;3.50;1.00;;;;;;5053828;28;20539;-75
2022/01/16 03:44:40;;;;;;;29.15;10.75;;;3.50;1.00;;;;;;5074792;28;20374;-75
2022/01/16 03:47:06;;;;;;;24.15;10.55;;;3.50;1.00;;;;;;5075738;28;20647;-75
2022/01/16 03:50:10;;;;;;;24.90;10.52;;;3.50;1.00;;;;;;5074491;28;20698;-75
2022/01/16 03:52:36;;;;;;;34.13;12.15;;;3.50;1.00;;;;;;5054960;28;20228;-75
2022/01/16 03:55:07;;;;;;;22.73;10.50;;;3.50;1.00;;;;;;5062233;28;20184;-75
2022/01/16 03:57:33;;;;;;;19.30;10.27;;;3.40;1.00;;;;;;5070076;28;22170;-74
2022/01/16 03:59:59;;;;;;;29.57;12.60;;;3.40;1.00;;;;;;5073738;28;20179;-75
2022/01/16 04:02:24;;;;;;;33.90;12.00;;;3.40;1.00;;;;;;5056596;28;20180;-75
2022/01/16 04:04:50;;;;;;;21.93;10.47;;;3.40;1.00;;;;;;5055306;28;20184;-75
2022/01/16 04:07:24;;;;;;;41.87;12.07;;;3.40;1.00;;;;;;5055298;28;20160;-76
2022/01/16 04:09:52;;;;;;;34.80;12.43;;;3.30;1.00;;;;;;5068598;28;20405;-78
2022/01/16 04:12:24;;;;;;;31.08;11.15;;;3.30;1.00;;;;;;5061675;28;20207;-77
2022/01/16 04:18:05;;;;;;;27.90;13.18;;;3.30;1.00;;;;;;5063046;28;20175;-77
2022/01/16 04:20:33;;;;;;;32.67;12.65;;;3.30;1.00;;;;;;5063934;28;20183;-76
2022/01/16 04:22:59;;;;;;;17.05;7.55;;;3.40;1.00;;;;;;5067642;28;20191;-75
2022/01/16 04:25:24;;;;;;;32.53;13.45;;;3.30;1.00;;;;;;5065510;28;20179;-75
2022/01/16 04:27:53;;;;;;;38.80;14.17;;;3.20;1.00;;;;;;5061266;28;20224;-75
2022/01/16 04:30:18;;;;;;;35.17;13.38;;;3.20;1.00;;;;;;5056642;28;20247;-75
2022/01/16 04:32:59;;;;;;;19.77;9.90;;;3.30;1.00;;;;;;5057518;28;20206;-75
2022/01/16 04:35:25;;;;;;;35.47;9.98;;;3.30;1.00;;;;;;5067121;28;20179;-75
2022/01/16 04:37:52;;;;;;;12.40;7.47;;;3.30;1.00;;;;;;5056100;28;20179;-76
2022/01/16 04:40:30;;;;;;;17.20;7.82;;;3.20;1.00;;;;;;5054463;28;20383;-77
2022/01/16 04:45:53;;;;;;;23.38;7.97;;;3.10;1.00;;;;;;5038413;28;20222;-76
2022/01/16 04:48:22;;;;;;;14.20;7.75;;;3.10;1.00;;;;;;5057779;28;20698;-76
2022/01/16 04:50:53;;;;;;;15.85;8.05;;;3.10;1.00;;;;;;5071588;28;20199;-77
2022/01/16 04:53:18;;;;;;;17.73;7.85;;;3.10;1.00;;;;;;5061403;28;20255;-76
2022/01/16 04:55:48;;;;;;;18.73;8.30;;;3.00;1.00;;;;;;5061252;28;20262;-76
2022/01/16 04:58:13;;;;;;;18.90;9.30;;;3.00;1.00;;;;;;5059206;28;20587;-76
2022/01/16 05:00:41;;;;;;;16.53;7.60;;;3.10;1.00;;;;;;5067645;28;20176;-76
2022/01/16 05:03:06;;;;;;;15.68;7.32;;;3.10;1.00;;;;;;5059529;28;20246;-77
2022/01/16 05:05:35;;;;;;;12.80;6.23;;;3.10;1.00;;;;;;5066433;28;20263;-76
2022/01/16 05:08:17;;;;;;;15.25;7.43;;;3.00;1.00;;;;;;5060845;28;20175;-77
2022/01/16 05:10:42;;;;;;;12.02;6.20;;;3.00;1.00;;;;;;5060981;28;20170;-76
2022/01/16 05:18:47;;;;;;;22.48;9.57;;;2.90;1.00;;;;;;5034326;28;20226;-77
2022/01/16 05:21:13;;;;;;;15.55;6.68;;;2.90;1.00;;;;;;5040801;28;20183;-77
2022/01/16 05:23:41;;;;;;;8.20;5.07;;;2.80;1.00;;;;;;5063975;28;20551;-75
2022/01/16 05:26:07;;;;;;;21.10;9.15;;;2.80;1.00;;;;;;5070614;28;20426;-75
2022/01/16 05:28:35;;;;;;;25.50;7.70;;;2.70;1.00;;;;;;5071223;28;20207;-75
2022/01/16 05:31:17;;;;;;;17.58;8.90;;;2.80;1.00;;;;;;5066933;28;20194;-75
2022/01/16 05:33:47;;;;;;;14.82;8.15;;;2.70;1.00;;;;;;5053836;28;20167;-75
2022/01/16 05:36:19;;;;;;;16.73;8.70;;;2.60;1.00;;;;;;5054049;28;20183;-75
2022/01/16 05:38:45;;;;;;;19.33;8.45;;;2.70;1.00;;;;;;5053886;28;20183;-77
2022/01/16 05:41:11;;;;;;;23.63;9.60;;;2.70;1.00;;;;;;5060626;28;20205;-77
2022/01/16 05:43:37;;;;;;;17.40;8.83;;;2.70;1.00;;;;;;5073597;28;20190;-77
2022/01/16 05:46:28;;;;;;;18.87;8.70;;;2.60;1.00;;;;;;5053573;28;20176;-77
2022/01/16 05:48:59;;;;;;;22.02;9.95;;;2.60;1.00;;;;;;5034069;28;20168;-77
2022/01/16 05:51:40;;;;;;;17.33;8.90;;;2.70;1.00;;;;;;5055277;28;20244;-76
2022/01/16 05:54:06;;;;;;;17.58;9.90;;;2.70;1.00;;;;;;5068279;28;20558;-76
2022/01/16 05:56:32;;;;;;;15.07;7.07;;;2.70;1.00;;;;;;5053330;28;20170;-76
2022/01/16 05:58:58;;;;;;;13.00;6.03;;;2.60;1.00;;;;;;5062733;28;20425;-76
2022/01/16 06:01:36;;;;;;;15.30;6.20;;;2.60;1.00;;;;;;5059376;28;20698;-76
2022/01/16 06:04:02;;;;;;;10.90;6.53;;;2.50;1.00;;;;;;5053361;28;20249;-77
2022/01/16 06:06:29;;;;;;;13.03;7.50;;;2.50;1.00;;;;;;5053926;28;20188;-77
2022/01/16 06:08:58;;;;;;;20.15;8.13;;;2.50;1.00;;;;;;5053979;28;20404;-75
2022/01/16 06:11:40;;;;;;;13.90;7.10;;;2.40;1.00;;;;;;5052964;28;20190;-75
2022/01/16 06:14:11;;;;;;;15.65;6.68;;;2.40;1.00;;;;;;5061036;28;20511;-75
2022/01/16 06:16:40;;;;;;;15.13;6.97;;;2.40;1.00;;;;;;5053333;28;20179;-74
2022/01/16 06:19:06;;;;;;;16.20;8.00;;;2.40;1.00;;;;;;5065480;28;20183;-75
2022/01/16 06:21:35;;;;;;;14.00;6.33;;;2.30;1.00;;;;;;5073247;28;20523;-75
2022/01/16 06:24:01;;;;;;;10.75;6.82;;;2.30;1.00;;;;;;5067137;28;20184;-75
2022/01/16 06:26:26;;;;;;;16.83;8.03;;;2.30;1.00;;;;;;5072327;28;20216;-75
2022/01/16 06:28:52;;;;;;;14.53;7.27;;;2.40;1.00;;;;;;5061099;28;20168;-75
2022/01/16 06:31:18;;;;;;;13.67;7.50;;;2.50;1.00;;;;;;5066335;28;20626;-75
2022/01/16 06:33:44;;;;;;;7.93;4.83;;;2.50;1.00;;;;;;5053437;28;20398;-75
2022/01/16 06:36:17;;;;;;;13.40;6.47;;;2.60;1.00;;;;;;5053304;28;20183;-75
2022/01/16 06:38:43;;;;;;;12.35;5.80;;;2.60;1.00;;;;;;5062028;28;20175;-75
2022/01/16 06:41:09;;;;;;;19.90;6.10;;;2.60;1.00;;;;;;5059554;28;20176;-75
2022/01/16 06:43:35;;;;;;;8.63;4.72;;;2.60;1.00;;;;;;5067177;28;20487;-75
2022/01/16 06:46:04;;;;;;;8.67;5.47;;;2.60;1.00;;;;;;5053680;28;20207;-75
2022/01/16 06:48:31;;;;;;;12.65;5.30;;;2.50;1.00;;;;;;5076764;28;20393;-75
2022/01/16 06:50:57;;;;;;;11.93;5.88;;;2.70;1.00;;;;;;5061094;28;20180;-76
2022/01/16 06:53:29;;;;;;;18.40;6.00;;;2.60;1.00;;;;;;5069225;28;20183;-76
2022/01/16 06:55:55;;;;;;;13.02;6.13;;;2.60;1.00;;;;;;5062502;28;20171;-76
2022/01/16 06:58:40;;;;;;;7.80;4.27;;;2.70;1.00;;;;;;5067576;28;20195;-77
2022/01/16 07:01:11;;;;;;;9.00;4.65;;;2.70;1.00;;;;;;5056162;28;20171;-77
2022/01/16 07:03:37;;;;;;;11.18;5.38;;;2.70;1.00;;;;;;5068658;28;20329;-76
2022/01/16 07:06:04;;;;;;;7.93;4.03;;;2.70;1.00;;;;;;5062660;28;20508;-76
2022/01/16 07:08:35;;;;;;;11.00;5.35;;;2.70;1.00;;;;;;5076563;28;20167;-75
2022/01/16 07:11:01;;;;;;;7.65;4.80;;;2.70;1.00;;;;;;5089950;28;20167;-75
2022/01/16 07:13:28;;;;;;;5.35;3.80;;;2.80;1.00;;;;;;5069466;28;20214;-76
2022/01/16 07:15:56;;;;;;;7.00;3.97;;;2.80;1.00;;;;;;5069548;28;20320;-75
2022/01/16 07:18:22;;;;;;;5.82;4.18;;;2.80;1.00;;;;;;5076226;28;20649;-75
2022/01/16 07:20:48;;;;;;;7.53;4.27;;;2.80;1.00;;;;;;5056928;28;20187;-76
2022/01/16 07:23:29;;;;;;;4.22;3.55;;;2.70;1.00;;;;;;5056052;28;20404;-79
2022/01/16 07:25:59;;;;;;;5.10;3.42;;;2.80;1.00;;;;;;5060381;28;20673;-78
2022/01/16 07:28:52;;;;;;;8.60;3.53;;;2.70;1.00;;;;;;5092103;28;20618;-76
2022/01/16 07:31:23;;;;;;;8.32;4.93;;;2.80;1.00;;;;;;5059960;28;20175;-77
2022/01/16 07:33:55;;;;;;;6.13;4.25;;;2.80;1.00;;;;;;5062520;28;20683;-75
2022/01/16 07:36:21;;;;;;;4.63;3.33;;;2.80;1.00;;;;;;5055393;28;20172;-77
2022/01/16 07:38:47;;;;;;;9.20;3.87;;;2.90;1.00;;;;;;5069402;28;20171;-76
2022/01/16 07:41:17;;;;;;;9.60;3.87;;;2.80;1.00;;;;;;5056691;28;20497;-77
2022/01/16 07:43:42;;;;;;;7.82;4.35;;;2.90;1.00;;;;;;5069000;28;20206;-76
2022/01/16 07:46:08;;;;;;;4.03;3.63;;;2.90;1.00;;;;;;5055554;28;20251;-76
2022/01/16 07:48:35;;;;;;;5.00;3.30;;;2.90;1.00;;;;;;5068655;28;20171;-76
2022/01/16 07:51:17;;;;;;;5.75;4.25;;;2.80;1.00;;;;;;5054585;28;20681;-76
2022/01/16 07:53:47;;;;;;;3.67;2.90;;;2.90;1.00;;;;;;5059873;28;20328;-75
2022/01/16 07:56:16;;;;;;;6.40;3.90;;;2.90;1.00;;;;;;5055556;28;20175;-75
2022/01/16 07:58:53;;;;;;;3.53;3.30;;;2.90;1.00;;;;;;5069668;28;20281;-76
2022/01/16 08:01:19;;;;;;;3.35;2.95;;;2.90;1.00;;;;;;5065035;28;20183;-75
2022/01/16 08:03:44;;;;;;;5.17;3.70;;;2.90;1.00;;;;;;5055256;28;20196;-75
2022/01/16 08:06:34;;;;;;;5.93;3.30;;;2.90;1.00;;;;;;5055005;28;20414;-75
2022/01/16 08:09:00;;;;;;;5.70;3.20;;;3.00;1.00;;;;;;5035464;28;20165;-76
2022/01/16 08:11:35;;;;;;;9.50;2.67;;;3.00;1.00;;;;;;5045426;28;20285;-76
2022/01/16 08:14:11;;;;;;;5.88;4.18;;;3.00;1.00;;;;;;5055063;28;20189;-76
2022/01/16 08:16:56;;;;;;;4.82;3.85;;;3.00;1.00;;;;;;5047495;28;20325;-75
2022/01/16 08:19:25;;;;;;;5.60;4.22;;;3.00;1.00;;;;;;5068154;28;20199;-75
2022/01/16 08:21:51;;;;;;;6.60;4.30;;;3.00;1.00;;;;;;5062791;28;20290;-75
2022/01/16 08:24:17;;;;;;;5.73;4.27;;;3.10;1.00;;;;;;5055387;28;20290;-75
2022/01/16 08:26:43;;;;;;;7.50;4.47;;;3.10;1.00;;;;;;5058618;28;20442;-75
2022/01/16 08:29:09;;;;;;;6.28;3.80;;;3.10;1.00;;;;;;5065177;28;20424;-76
2022/01/16 08:31:35;;;;;;;7.30;4.80;;;3.10;1.00;;;;;;5069321;28;20175;-76
2022/01/16 08:34:00;;;;;;;8.53;4.90;;;3.10;1.00;;;;;;5063996;28;20462;-75
2022/01/16 08:36:26;;;;;;;9.17;4.93;;;;;;;;;;5067621;28;20232;-76
2022/01/16 08:38:54;;;;;;;5.97;4.03;;;;;;;;;;5061685;28;20265;-75
2022/01/16 08:41:21;;;;;;;7.85;4.63;;;3.30;1.00;;;;;;5073564;28;20445;-75
2022/01/16 08:43:47;;;;;;;9.90;5.30;;;3.30;1.00;;;;;;5053507;28;20210;-75
2022/01/16 08:46:13;;;;;;;11.33;5.53;;;3.20;1.00;;;;;;5064839;28;20179;-75
2022/01/16 08:48:39;;;;;;;12.13;5.00;;;3.30;1.00;;;;;;5056867;28;20429;-75
2022/01/16 08:51:05;;;;;;;9.23;4.90;;;3.30;1.00;;;;;;5067782;28;20534;-75
2022/01/16 08:53:31;;;;;;;9.77;5.47;;;3.30;1.00;;;;;;5056694;28;20421;-75
2022/01/16 08:55:58;;;;;;;11.80;6.47;;;3.30;1.00;;;;;;5060195;28;20191;-76
2022/01/16 08:58:25;;;;;;;7.63;4.85;;;3.30;1.00;;;;;;5059508;28;20202;-76
2022/01/16 09:00:53;;;;;;;11.95;6.03;;;3.30;1.00;;;;;;5069325;28;20179;-76
2022/01/16 09:03:21;;;;;;;7.90;3.95;;;3.30;1.00;;;;;;5056264;28;20654;-76
2022/01/16 09:05:48;;;;;;;7.00;4.75;;;3.20;1.00;;;;;;5060358;28;20547;-76
2022/01/16 09:08:14;;;;;;;12.65;6.30;;;3.20;1.00;;;;;;5069330;28;20212;-77
2022/01/16 09:10:41;;;;;;;12.70;5.85;;;3.20;1.00;;;;;;5067892;28;20175;-76
2022/01/16 09:13:15;;;;;;;8.15;5.32;;;3.10;1.00;;;;;;5054871;28;20205;-76
2022/01/16 09:15:50;;;;;;;12.45;6.15;;;3.20;1.00;;;;;;5064451;28;20186;-75
2022/01/16 09:18:17;;;;;;;15.80;7.03;;;3.10;1.00;;;;;;5056563;28;20329;-75
2022/01/16 09:20:44;;;;;;;12.50;6.45;;;3.10;1.00;;;;;;5060109;28;21699;-75
2022/01/16 09:23:11;;;;;;;12.73;6.30;;;3.10;1.00;;;;;;5068502;28;20689;-75
2022/01/16 09:25:37;;;;;;;18.83;7.25;;;3.10;1.00;;;;;;5069984;28;20240;-76
2022/01/16 09:28:03;;;;;;;18.30;7.40;;;3.20;1.00;;;;;;5072911;28;20187;-77
2022/01/16 09:30:30;;;;;;;16.90;6.77;;;3.10;1.00;;;;;;5073016;28;20479;-76
2022/01/16 09:32:56;;;;;;;21.02;8.27;;;3.20;1.00;;;;;;5059515;28;20777;-76
2022/01/16 09:35:23;;;;;;;11.77;6.30;;;;;;;;;;5065060;28;20179;-76
2022/01/16 09:37:49;;;;;;;15.55;7.18;;;;;;;;;;5068729;28;20180;-76
2022/01/16 09:40:17;;;;;;;17.20;7.72;;;3.30;1.00;;;;;;5073236;28;20571;-76
2022/01/16 09:42:43;;;;;;;11.00;6.28;;;3.40;1.00;;;;;;5062077;28;20207;-76
2022/01/16 09:45:11;;;;;;;15.90;7.53;;;3.40;1.00;;;;;;5061517;28;20248;-76
2022/01/16 09:47:37;;;;;;;14.07;7.88;;;3.50;1.00;;;;;;5061174;28;20518;-76
2022/01/16 09:50:05;;;;;;;18.80;7.85;;;3.40;1.00;;;;;;5058628;28;20178;-76
2022/01/16 09:52:39;;;;;;;15.10;7.22;;;3.40;1.00;;;;;;5063971;28;20207;-76
2022/01/16 09:55:06;;;;;;;21.58;7.75;;;3.50;1.00;;;;;;5071168;28;20186;-76
2022/01/16 09:57:32;;;;;;;14.77;7.90;;;3.50;1.00;;;;;;5059726;28;20663;-77
2022/01/16 10:00:08;;;;;;;20.83;8.43;;;3.70;1.00;;;;;;5044327;28;20263;-76
2022/01/16 10:02:47;;;;;;;20.67;9.52;;;3.80;1.00;;;;;;5047458;28;20465;-76
2022/01/16 10:05:37;;;;;;;17.90;8.60;;;4.00;1.00;;;;;;5065701;28;20589;-76
2022/01/16 10:08:26;;;;;;;15.00;6.97;;;4.00;1.00;;;;;;5051382;28;20432;-76
2022/01/16 10:10:52;;;;;;;18.27;8.00;;;4.10;1.00;;;;;;5055798;28;20266;-75
2022/01/16 10:13:33;;;;;;;19.50;7.77;;;4.00;1.00;;;;;;5050735;28;20521;-75
2022/01/16 10:16:05;;;;;;;20.30;7.78;;;4.00;1.00;;;;;;5053073;28;20221;-75
2022/01/16 10:18:41;;;;;;;20.40;8.52;;;4.00;1.00;;;;;;5071334;28;20175;-75
2022/01/16 10:21:08;;;;;;;32.08;9.45;;;3.90;1.00;;;;;;5062085;28;20225;-75
2022/01/16 10:23:43;;;;;;;16.70;8.23;;;3.90;1.00;;;;;;5054239;28;20210;-76
2022/01/16 10:26:23;;;;;;;24.83;9.20;;;3.90;1.00;;;;;;5055838;28;20178;-75
2022/01/16 10:28:53;;;;;;;19.70;8.48;;;3.90;1.00;;;;;;5047011;28;20530;-75
2022/01/16 10:31:35;;;;;;;14.23;8.13;;;3.90;1.00;;;;;;5056001;28;20198;-75
2022/01/16 10:34:22;;;;;;;17.25;8.05;;;3.80;1.00;;;;;;5057454;28;20207;-75
2022/01/16 10:37:00;;;;;;;15.10;7.82;;;3.80;1.00;;;;;;5052563;28;20230;-77
2022/01/16 10:39:35;;;;;;;16.40;7.63;;;3.70;1.00;;;;;;5056741;28;20535;-75
2022/01/16 10:42:15;;;;;;;22.25;9.07;;;3.70;1.00;;;;;;5050388;28;20564;-75
2022/01/16 10:44:41;;;;;;;16.30;7.30;;;3.70;1.00;;;;;;5057997;28;20232;-76
2022/01/16 10:47:24;;;;;;;17.98;7.68;;;3.80;1.00;;;;;;5058611;28;20256;-74
2022/01/16 10:50:10;;;;;;;14.50;7.03;;;3.70;1.00;;;;;;5070448;28;20519;-75
2022/01/16 10:52:59;;;;;;;11.63;7.10;;;3.70;1.00;;;;;;5055115;28;20176;-75
2022/01/16 10:55:40;;;;;;;11.90;6.78;;;3.70;1.00;;;;;;5064984;28;20179;-75
2022/01/16 10:58:20;;;;;;;12.48;7.18;;;3.70;1.00;;;;;;5047748;28;20191;-75
2022/01/16 11:01:00;;;;;;;14.10;6.90;;;3.70;1.00;;;;;;5068835;28;20172;-75
2022/01/16 11:03:46;;;;;;;14.70;7.32;;;3.80;1.00;;;;;;5067136;28;20179;-75
2022/01/16 11:06:17;;;;;;;14.50;7.40;;;3.70;1.00;;;;;;5051054;28;20172;-75
2022/01/16 11:08:54;;;;;;;13.80;7.30;;;3.70;1.00;;;;;;5057859;28;20172;-75
2022/01/16 11:11:20;;;;;;;21.85;6.97;;;3.70;1.00;;;;;;5050742;28;20202;-76
2022/01/16 11:13:47;;;;;;;13.15;6.75;;;3.70;1.00;;;;;;5053273;28;20183;-76
2022/01/16 11:16:17;;;;;;;26.92;5.82;;;3.60;1.00;;;;;;5052509;28;20174;-76
2022/01/16 11:18:49;;;;;;;17.73;7.72;;;3.50;1.00;;;;;;5061038;28;20180;-76
2022/01/16 11:21:20;;;;;;;19.17;7.35;;;3.40;1.00;;;;;;5046246;28;20202;-76
2022/01/16 11:26:22;;;;;;;14.90;7.18;;;3.30;1.00;;;;;;5056062;28;20512;-75
2022/01/16 11:28:51;;;;;;;13.32;6.20;;;3.30;1.00;;;;;;5056606;28;20175;-75
2022/01/16 11:31:18;;;;;;;18.42;7.93;;;3.30;1.00;;;;;;5045309;28;20256;-75
2022/01/16 11:33:45;;;;;;;9.20;6.05;;;3.20;1.00;;;;;;5053856;28;20171;-75
2022/01/16 11:36:17;;;;;;;10.43;5.40;;;3.20;1.00;;;;;;5041976;28;20180;-75
2022/01/16 11:38:58;;;;;;;10.27;5.75;;;3.20;1.00;;;;;;5043061;28;20247;-75
2022/01/16 11:41:34;;;;;;;10.63;6.47;;;3.20;1.00;;;;;;5068584;28;20257;-74
2022/01/16 11:44:02;;;;;;;9.38;4.93;;;3.30;1.00;;;;;;5059703;28;20673;-75
2022/01/16 11:46:30;;;;;;;20.20;7.90;;;3.30;1.00;;;;;;5063729;28;20190;-75
2022/01/16 11:48:58;;;;;;;16.73;6.47;;;3.30;1.00;;;;;;5061744;28;20216;-76
2022/01/16 11:51:37;;;;;;;16.17;8.85;;;3.30;1.00;;;;;;5062600;28;20178;-76
2022/01/16 11:54:11;;;;;;;13.32;7.47;;;3.30;1.00;;;;;;5064133;28;20174;-76
2022/01/16 11:56:39;;;;;;;12.38;5.93;;;3.40;1.00;;;;;;5064321;28;20252;-77
2022/01/16 11:59:22;;;;;;;13.13;6.18;;;3.40;1.00;;;;;;5061013;28;20204;-76
2022/01/16 12:01:55;;;;;;;7.53;3.88;;;3.30;1.00;;;;;;5055827;28;20257;-76
2022/01/16 12:04:30;;;;;;;11.75;5.90;;;3.30;1.00;;;;;;5073613;28;20191;-76
2022/01/16 12:07:11;;;;;;;19.25;7.50;;;3.30;1.00;;;;;;5062387;28;20209;-76
2022/01/16 12:09:39;;;;;;;21.98;8.32;;;3.40;1.00;;;;;;5068347;28;20172;-76
2022/01/16 12:12:14;;;;;;;16.02;8.18;;;3.40;1.00;;;;;;5055561;28;20194;-75
2022/01/16 12:15:04;;;;;;;15.30;7.35;;;3.40;1.00;;;;;;5061272;28;20216;-74
2022/01/16 12:20:13;;;;;;;16.93;7.97;;;3.60;1.00;;;;;;5066626;28;20604;-75
2022/01/16 12:23:08;;;;;;;14.48;6.90;;;3.60;1.00;;;;;;5058786;28;20497;-76
2022/01/16 12:25:37;;;;;;;16.65;6.80;;;3.70;1.00;;;;;;5058696;28;20673;-76
2022/01/16 12:28:09;;;;;;;16.75;7.43;;;4.00;1.00;;;;;;5050267;28;20266;-76
2022/01/16 12:30:52;;;;;;;18.80;7.43;;;4.10;1.00;;;;;;5056295;28;20180;-75
2022/01/16 12:33:35;;;;;;;18.83;7.50;;;4.20;1.00;;;;;;5064933;28;20589;-75
2022/01/16 12:36:08;;;;;;;14.70;7.55;;;4.20;1.00;;;;;;5067143;28;20421;-76
2022/01/16 12:38:45;;;;;;;22.40;7.57;;;4.30;1.00;;;;;;5067428;28;20266;-76
2022/01/16 12:41:22;;;;;;;11.07;6.07;;;4.40;1.00;;;;;;5064870;28;20937;-76
2022/01/16 12:44:09;;;;;;;12.90;6.80;;;4.40;1.00;;;;;;5049299;28;20211;-76
2022/01/16 12:46:47;;;;;;;17.97;7.20;;;4.40;1.00;;;;;;5054981;28;20183;-76
2022/01/16 12:49:21;;;;;;;18.03;7.23;;;4.50;1.00;;;;;;5073475;28;20704;-76
2022/01/16 12:51:49;;;;;;;16.13;7.70;;;4.60;1.00;;;;;;5057704;28;20567;-76
2022/01/16 12:54:20;;;;;;;12.77;7.00;;;4.80;1.00;;;;;;5066749;28;20501;-76
2022/01/16 12:56:51;;;;;;;9.50;5.57;;;5.00;1.00;;;;;;5059080;28;20504;-75
2022/01/16 12:59:23;;;;;;;12.53;6.60;;;4.80;1.00;;;;;;5061323;28;20429;-75
2022/01/16 13:01:54;;;;;;;14.97;7.60;;;5.00;1.00;;;;;;5061228;28;20432;-75
2022/01/16 13:04:34;;;;;;;16.20;7.53;;;5.10;1.00;;;;;;5070576;28;20453;-75
2022/01/16 13:07:02;;;;;;;9.93;5.37;;;5.10;1.00;;;;;;5063954;28;20413;-75
2022/01/16 13:09:28;;;;;;;14.37;6.60;;;4.90;1.00;;;;;;5069272;28;20509;-75
2022/01/16 13:12:14;;;;;;;18.30;7.97;;;4.80;1.00;;;;;;5060356;28;20410;-75
2022/01/16 13:14:44;;;;;;;15.73;7.07;;;4.80;1.00;;;;;;5044723;28;20523;-75
2022/01/16 13:17:12;;;;;;;19.00;7.57;;;4.70;1.00;;;;;;5070122;28;20532;-76
2022/01/16 13:22:11;;;;;;;19.40;8.03;;;4.80;1.00;;;;;;5064141;28;20417;-76
2022/01/16 13:24:41;;;;;;;11.97;5.93;;;5.10;1.00;;;;;;5070034;28;20584;-76
2022/01/16 13:27:15;;;;;;;12.20;6.20;;;5.30;1.00;;;;;;5070565;28;20808;-75
2022/01/16 13:29:44;;;;;;;17.40;6.60;;;5.30;1.00;;;;;;5069999;28;20776;-75
2022/01/16 13:32:13;;;;;;;11.57;6.27;;;5.40;1.00;;;;;;5069965;28;20900;-75
2022/01/16 13:34:50;;;;;;;18.70;8.40;;;5.50;1.00;;;;;;5052991;28;20781;-75
2022/01/16 13:37:19;;;;;;;10.30;6.93;;;5.60;1.00;;;;;;5069901;28;20579;-75
2022/01/16 13:40:13;;;;;;;14.87;7.50;;;5.50;1.00;;;;;;5056007;28;20816;-75
2022/01/16 13:43:02;;;;;;;16.80;6.80;;;5.60;1.00;;;;;;5070028;28;20433;-75
2022/01/16 13:45:35;;;;;;;9.47;5.60;;;5.50;1.00;;;;;;5062732;28;20523;-76
2022/01/16 13:48:15;;;;;;;12.30;6.80;;;5.50;1.00;;;;;;5057035;28;20771;-74
2022/01/16 13:50:46;;;;;;;11.03;6.20;;;5.40;1.00;;;;;;5069441;28;20417;-74
2022/01/16 13:53:13;;;;;;;13.80;7.40;;;5.40;1.00;;;;;;5067808;28;20421;-75
2022/01/16 13:55:51;;;;;;;13.70;6.67;;;5.40;1.00;;;;;;5057427;28;20414;-77
2022/01/16 13:58:21;;;;;;;14.70;7.20;;;2.30;1.00;;;;;;5061557;28;20446;-76
2022/01/16 14:00:47;;;;;;;12.20;6.90;;;5.40;1.00;;;;;;5056994;28;20438;-75
2022/01/16 14:03:14;;;;;;;14.33;7.20;;;5.50;1.00;;;;;;5065760;28;20421;-74
2022/01/16 14:05:46;;;;;;;23.83;7.20;;;5.50;1.00;;;;;;5067839;28;20199;-75
2022/01/16 14:08:36;;;;;;;11.77;7.27;;;5.40;1.00;;;;;;5071421;28;20422;-74
2022/01/16 14:11:24;;;;;;;14.23;7.00;;;5.30;1.00;;;;;;5054812;28;20436;-75
2022/01/16 14:13:59;;;;;;;12.43;7.37;;;5.30;1.00;;;;;;5059911;28;20917;-74
2022/01/16 14:19:53;;;;;;;8.20;5.40;;;5.10;1.00;;;;;;5009654;28;20447;-73
2022/01/16 14:22:22;;;;;;;15.37;7.47;;;5.00;1.00;;;;;;4990766;28;20441;-74